CYZP

Sandspit Airport

Sandspit, , Canada
METAR CYZP 181422Z AUTO 29016KT OVC005 05/05 A2936 RMK WX MISG VIS MISG PCPN MISG SLP944
Observed Flight Rules
Jan-18 @ 14:22 UTC (19 minutes ago)
Wind Clouds
290° at 16 knots
  • Overcast at 500' AGL
Temperatures Readings
Current 5°C / 41°F
Dewpoint 5°C / 41°F
Humidity 100%
Altimeter 29.36" Hg
Pressure 994.4 hPa
Elevation 6
METAR CYZP 181422Z AUTO 29016KT OVC005 05/05 A2936 RMK WX MISG VIS MISG PCPN MISG SLP944
Observed Flight Rules
Jan-18 @ 14:22 UTC
(19 minutes ago)
Wind
290° at 16 knots
Clouds
  • Overcast at 500' AGL
Temperature Dewpoint
5°C / 41°F 5°C / 41°F
Humidity Altimeter Pressure
100% 29.36" Hg 994.4 hPa